Terminal Aerodrome Forecast
Issued by NWS Charleston, SC

Current Version | Previous Version | Text Only | Print | Product List | Glossary On
Versions: 1 2 3 4 5 6 7 8 9 10 11 12 13 14 15
000
FTUS42 KCHS 200520
TAFSAV
TAF
KSAV 200520Z 2006/2106 00000KT P6SM SCT060
     FM201800 12010KT P6SM SCT045
     FM210100 14005KT P6SM FEW035 SCT070=

USA.gov is the U.S. government's official web portal to all federal, state and local government web resources and services.